Time;durP1;ratioP1;P1;durP2;ratioP2;P2;SDS_P1;SDS_P2;PMS_P1;PMS_P2;Temp;Humidity;BMP_temperature;BMP_pressure;BME280_temperature;BME280_humidity;BME280_pressure;Samples;Min_cycle;Max_cycle;Signal;HPM_P1;HPM_P2
2022/10/21 00:00:53;;;;;;;43.40;22.60;;;;;;;;;;5040303;28;20151;-64
2022/10/21 00:03:20;;;;;;;38.45;21.05;;;;;;;;;;5050009;28;20507;-64
2022/10/21 00:05:46;;;;;;;38.70;21.30;;;;;;;;;;5047239;28;20237;-64
2022/10/21 00:08:13;;;;;;;38.83;21.88;;;;;;;;;;5044885;28;20040;-64
2022/10/21 00:10:39;;;;;;;42.30;22.10;;;;;;;;;;5023232;28;20295;-64
2022/10/21 00:13:05;;;;;;;41.88;21.23;;;;;;;;;;5046145;28;20410;-64
2022/10/21 00:15:31;;;;;;;43.13;22.38;;;;;;;;;;5046840;28;20044;-64
2022/10/21 00:17:57;;;;;;;39.15;21.85;;;;;;;;;;5056645;28;20043;-64
2022/10/21 00:20:23;;;;;;;38.85;20.92;;;;;;;;;;5044263;28;20037;-64
2022/10/21 00:22:49;;;;;;;39.22;22.05;;;;;;;;;;5037723;28;20110;-64
2022/10/21 00:25:15;;;;;;;38.45;21.33;;;;;;;;;;5046169;28;20591;-64
2022/10/21 00:27:41;;;;;;;45.38;21.90;;;;;;;;;;5041253;28;20449;-64
2022/10/21 00:30:08;;;;;;;40.22;20.80;;;;;;;;;;5049416;28;20044;-64
2022/10/21 00:32:34;;;;;;;37.92;20.60;;;;;;;;;;5050380;28;20037;-64
2022/10/21 00:35:00;;;;;;;35.72;21.15;;;;;;;;;;5050855;28;20479;-64
2022/10/21 00:37:29;;;;;;;43.50;21.77;;;;;;;;;;5042705;28;20033;-64
2022/10/21 00:39:55;;;;;;;41.00;21.85;;;;;;;;;;5037229;28;20041;-64
2022/10/21 00:42:21;;;;;;;46.15;22.17;;;;;;;;;;5043721;28;20426;-64
2022/10/21 00:45:01;;;;;;;37.25;20.58;;;;;;;;;;5046803;28;20087;-64
2022/10/21 00:47:28;;;;;;;36.45;21.02;;;;;;;;;;5046606;28;20050;-64
2022/10/21 00:49:58;;;;;;;40.83;20.77;;;;;;;;;;5035200;28;20408;-64
2022/10/21 00:52:24;;;;;;;41.03;21.98;;;;;;;;;;5042414;28;20406;-65
2022/10/21 00:54:52;;;;;;;39.38;21.05;;;;;;;;;;5044524;28;20034;-64
2022/10/21 00:57:19;;;;;;;41.75;22.05;;;;;;;;;;5034313;28;20648;-65
2022/10/21 00:59:48;;;;;;;38.47;21.48;;;;;;;;;;5037097;28;20033;-64
2022/10/21 01:02:14;;;;;;;40.30;21.13;;;;;;;;;;5043267;28;20053;-64
2022/10/21 01:04:40;;;;;;;38.38;20.67;;;;;;;;;;5039128;28;20041;-64
2022/10/21 01:07:06;;;;;;;42.20;20.90;;;;;;;;;;5036335;28;20073;-64
2022/10/21 01:09:32;;;;;;;38.47;20.88;;;;;;;;;;5040056;28;20072;-64
2022/10/21 01:11:58;;;;;;;36.67;20.33;;;;;;;;;;5044596;28;20494;-64
2022/10/21 01:14:43;;;;;;;41.30;21.48;;;;;;;;;;5054147;28;20119;-64
2022/10/21 01:17:28;;;;;;;41.28;21.23;;;;;;;;;;5044536;28;20461;-64
2022/10/21 01:20:09;;;;;;;38.05;21.63;;;;;;;;;;5041082;28;20037;-64
2022/10/21 01:22:50;;;;;;;37.42;21.08;;;;;;;;;;5039547;28;20101;-64
2022/10/21 01:25:16;;;;;;;;;;;;;;;;;;5048334;28;20045;-65
2022/10/21 01:27:42;;;;;;;43.40;20.65;;;;;;;;;;5051824;28;19927;-65
2022/10/21 01:30:14;;;;;;;37.30;20.60;;;;;;;;;;5045580;28;20040;-65
2022/10/21 01:32:46;;;;;;;41.38;21.55;;;;;;;;;;5048183;28;20045;-65
2022/10/21 01:35:36;;;;;;;38.17;20.83;;;;;;;;;;5050946;28;20037;-64
2022/10/21 01:38:05;;;;;;;37.15;20.13;;;;;;;;;;5038421;28;20044;-64
2022/10/21 01:40:34;;;;;;;34.47;19.83;;;;;;;;;;5045281;28;20037;-64
2022/10/21 01:43:03;;;;;;;40.05;21.33;;;;;;;;;;5048771;28;20037;-65
2022/10/21 01:45:32;;;;;;;40.55;21.58;;;;;;;;;;5052087;28;20052;-65
2022/10/21 01:48:05;;;;;;;37.58;20.00;;;;;;;;;;5042705;28;20037;-65
2022/10/21 01:50:34;;;;;;;39.78;21.00;;;;;;;;;;5039686;28;20044;-65
2022/10/21 01:53:04;;;;;;;35.05;20.30;;;;;;;;;;5047459;28;20132;-64
2022/10/21 01:55:32;;;;;;;38.92;20.45;;;;;;;;;;5053474;28;20029;-65
2022/10/21 01:58:00;;;;;;;41.42;21.27;;;;;;;;;;5040607;28;20083;-64
2022/10/21 02:00:26;;;;;;;37.88;21.13;;;;;;;;;;5041654;28;20033;-65
2022/10/21 02:02:52;;;;;;;39.80;20.65;;;;;;;;;;5052336;28;20040;-64
2022/10/21 02:05:20;;;;;;;40.35;20.48;;;;;;;;;;5045804;28;20064;-64
2022/10/21 02:07:46;;;;;;;41.25;21.50;;;;;;;;;;5044105;28;20040;-65
2022/10/21 02:10:12;;;;;;;37.55;21.52;;;;;;;;;;5048177;28;20098;-65
2022/10/21 02:12:40;;;;;;;38.92;20.67;;;;;;;;;;5053387;28;20045;-65
2022/10/21 02:15:07;;;;;;;40.25;22.02;;;;;;;;;;5052352;28;20040;-65
2022/10/21 02:17:34;;;;;;;45.15;22.50;;;;;;;;;;5034467;28;20033;-67
2022/10/21 02:20:01;;;;;;;42.50;21.58;;;;;;;;;;5042668;28;20036;-66
2022/10/21 02:22:28;;;;;;;41.83;21.48;;;;;;;;;;5052309;28;20049;-66
2022/10/21 02:25:00;;;;;;;46.95;21.67;;;;;;;;;;5052420;28;20099;-65
2022/10/21 02:27:26;;;;;;;39.13;20.95;;;;;;;;;;5040977;28;20041;-65
2022/10/21 02:29:53;;;;;;;39.10;21.20;;;;;;;;;;5050263;28;20149;-66
2022/10/21 02:32:41;;;;;;;40.05;21.25;;;;;;;;;;5051277;28;20045;-66
2022/10/21 02:35:19;;;;;;;41.75;21.77;;;;;;;;;;5045340;28;20384;-66
2022/10/21 02:37:45;;;;;;;42.17;22.45;;;;;;;;;;5044621;28;20513;-66
2022/10/21 02:40:20;;;;;;;43.78;21.95;;;;;;;;;;5042775;28;20037;-66
2022/10/21 02:42:50;;;;;;;38.53;20.75;;;;;;;;;;5051098;28;20041;-66
2022/10/21 02:45:17;;;;;;;41.05;20.38;;;;;;;;;;5039577;28;20041;-66
2022/10/21 02:47:43;;;;;;;44.97;22.70;;;;;;;;;;5041343;28;20047;-66
2022/10/21 02:50:09;;;;;;;41.03;21.92;;;;;;;;;;5028379;28;20099;-66
2022/10/21 02:52:35;;;;;;;43.78;21.98;;;;;;;;;;5052429;28;20510;-66
2022/10/21 02:55:01;;;;;;;45.15;22.83;;;;;;;;;;5051515;28;20052;-66
2022/10/21 02:57:27;;;;;;;47.50;20.88;;;;;;;;;;5035905;28;20392;-66
2022/10/21 02:59:53;;;;;;;41.20;20.83;;;;;;;;;;5048300;28;20041;-66
2022/10/21 03:02:19;;;;;;;43.30;21.00;;;;;;;;;;5043032;28;20499;-65
2022/10/21 03:04:45;;;;;;;37.20;19.17;;;;;;;;;;5044295;28;20044;-65
2022/10/21 03:07:11;;;;;;;43.47;20.25;;;;;;;;;;5038882;28;20052;-65
2022/10/21 03:09:37;;;;;;;44.67;21.90;;;;;;;;;;5049086;28;20059;-65
2022/10/21 03:12:03;;;;;;;45.92;22.15;;;;;;;;;;5047674;28;20052;-65
2022/10/21 03:14:29;;;;;;;46.47;20.65;;;;;;;;;;5051431;28;20402;-65
2022/10/21 03:16:55;;;;;;;45.63;22.33;;;;;;;;;;5044242;28;20057;-65
2022/10/21 03:19:21;;;;;;;45.35;21.25;;;;;;;;;;5041418;28;20037;-65
2022/10/21 03:21:47;;;;;;;43.05;21.02;;;;;;;;;;5045662;28;20053;-65
2022/10/21 03:24:13;;;;;;;46.25;21.98;;;;;;;;;;5047745;28;20171;-65
2022/10/21 03:26:39;;;;;;;42.20;21.48;;;;;;;;;;5045733;28;20112;-65
2022/10/21 03:29:05;;;;;;;43.10;21.25;;;;;;;;;;5031217;28;20034;-65
2022/10/21 03:31:31;;;;;;;41.45;20.85;;;;;;;;;;5046158;28;20053;-65
2022/10/21 03:33:57;;;;;;;47.10;20.75;;;;;;;;;;5048547;28;20040;-65
2022/10/21 03:36:23;;;;;;;42.58;20.95;;;;;;;;;;5046970;28;20089;-65
2022/10/21 03:38:49;;;;;;;40.97;21.10;;;;;;;;;;5042828;28;20109;-65
2022/10/21 03:41:15;;;;;;;41.08;21.65;;;;;;;;;;5049275;28;20124;-66
2022/10/21 03:43:41;;;;;;;47.92;21.33;;;;;;;;;;5051683;28;20037;-65
2022/10/21 03:46:07;;;;;;;46.25;21.85;;;;;;;;;;5047238;28;20048;-65
2022/10/21 03:48:33;;;;;;;48.10;22.13;;;;;;;;;;5039946;28;20044;-65
2022/10/21 03:50:59;;;;;;;47.58;22.25;;;;;;;;;;5046287;28;20515;-65
2022/10/21 03:53:25;;;;;;;46.10;22.27;;;;;;;;;;5051563;28;20068;-65
2022/10/21 03:55:51;;;;;;;51.00;22.00;;;;;;;;;;5046882;28;20111;-65
2022/10/21 03:58:17;;;;;;;58.15;23.15;;;;;;;;;;5035747;28;20042;-65
2022/10/21 04:00:44;;;;;;;52.92;23.23;;;;;;;;;;5046295;28;20029;-65
2022/10/21 04:03:10;;;;;;;50.00;22.23;;;;;;;;;;5041511;28;20075;-67
2022/10/21 04:05:36;;;;;;;51.00;22.55;;;;;;;;;;5045605;28;20063;-66
2022/10/21 04:08:02;;;;;;;43.25;22.17;;;;;;;;;;5036069;28;20102;-66
2022/10/21 04:10:28;;;;;;;51.50;22.73;;;;;;;;;;5046633;28;20048;-66
2022/10/21 04:12:54;;;;;;;46.88;22.50;;;;;;;;;;5050753;28;20033;-66
2022/10/21 04:15:20;;;;;;;43.00;22.10;;;;;;;;;;5049442;28;20080;-65
2022/10/21 04:17:46;;;;;;;46.72;21.80;;;;;;;;;;5043641;28;20076;-66
2022/10/21 04:20:12;;;;;;;45.60;21.13;;;;;;;;;;5037289;28;20040;-65
2022/10/21 04:22:38;;;;;;;43.50;21.02;;;;;;;;;;5047279;28;20044;-66
2022/10/21 04:25:04;;;;;;;47.20;20.80;;;;;;;;;;5048039;28;20041;-66
2022/10/21 04:27:30;;;;;;;41.72;20.67;;;;;;;;;;5039647;28;20086;-66
2022/10/21 04:29:56;;;;;;;43.75;21.85;;;;;;;;;;5036991;28;20126;-66
2022/10/21 04:32:22;;;;;;;42.05;21.52;;;;;;;;;;5042318;28;20495;-65
2022/10/21 04:34:48;;;;;;;39.80;21.38;;;;;;;;;;5051322;28;20037;-66
2022/10/21 04:37:14;;;;;;;46.55;21.90;;;;;;;;;;5036873;28;20399;-66
2022/10/21 04:39:40;;;;;;;38.45;20.48;;;;;;;;;;5046922;28;20033;-65
2022/10/21 04:42:06;;;;;;;41.53;21.10;;;;;;;;;;5044764;28;20111;-65
2022/10/21 04:44:32;;;;;;;42.90;20.95;;;;;;;;;;5048425;28;20064;-65
2022/10/21 04:46:58;;;;;;;40.60;20.23;;;;;;;;;;5042364;28;20069;-66
2022/10/21 04:49:24;;;;;;;39.45;20.17;;;;;;;;;;5051850;28;20041;-65
2022/10/21 04:51:50;;;;;;;43.05;20.33;;;;;;;;;;5053937;28;20048;-66
2022/10/21 04:54:16;;;;;;;37.28;19.85;;;;;;;;;;5054085;28;20041;-65
2022/10/21 04:56:42;;;;;;;36.58;19.98;;;;;;;;;;5048254;28;20419;-65
2022/10/21 04:59:08;;;;;;;41.25;20.08;;;;;;;;;;5049414;28;20043;-65
2022/10/21 05:01:34;;;;;;;42.30;21.13;;;;;;;;;;5052886;28;20116;-66
2022/10/21 05:04:00;;;;;;;41.85;20.60;;;;;;;;;;5046571;28;20121;-65
2022/10/21 05:06:26;;;;;;;41.92;20.25;;;;;;;;;;5045313;28;20410;-66
2022/10/21 05:08:52;;;;;;;38.05;20.20;;;;;;;;;;5047264;28;20038;-66
2022/10/21 05:11:18;;;;;;;44.20;21.42;;;;;;;;;;5048424;28;20103;-65
2022/10/21 05:13:45;;;;;;;43.08;20.95;;;;;;;;;;5046687;28;20052;-66
2022/10/21 05:16:11;;;;;;;42.35;20.48;;;;;;;;;;5043007;28;20148;-65
2022/10/21 05:18:37;;;;;;;41.10;20.38;;;;;;;;;;5052616;28;20041;-66
2022/10/21 05:21:03;;;;;;;37.15;20.13;;;;;;;;;;5044477;28;20075;-66
2022/10/21 05:23:29;;;;;;;38.90;20.48;;;;;;;;;;5054297;28;20052;-66
2022/10/21 05:25:55;;;;;;;37.95;19.20;;;;;;;;;;5046679;28;20041;-66
2022/10/21 05:28:21;;;;;;;39.00;18.40;;;;;;;;;;5046045;28;20044;-66
2022/10/21 05:30:47;;;;;;;36.25;19.13;;;;;;;;;;5053934;28;20379;-66
2022/10/21 05:33:13;;;;;;;40.40;20.67;;;;;;;;;;5052692;28;20045;-66
2022/10/21 05:35:39;;;;;;;35.55;18.92;;;;;;;;;;5048187;28;20029;-66
2022/10/21 05:38:05;;;;;;;36.15;18.75;;;;;;;;;;5045416;28;20040;-66
2022/10/21 05:40:32;;;;;;;36.13;19.75;;;;;;;;;;5036580;28;20025;-66
2022/10/21 05:42:58;;;;;;;28.85;17.75;;;;;;;;;;5049448;28;20056;-66
2022/10/21 05:45:25;;;;;;;37.08;18.92;;;;;;;;;;5051210;28;20129;-66
2022/10/21 05:47:51;;;;;;;31.77;17.10;;;;;;;;;;5043318;28;20118;-66
2022/10/21 05:50:17;;;;;;;29.88;18.00;;;;;;;;;;5048625;28;20032;-66
2022/10/21 05:52:44;;;;;;;29.73;17.02;;;;;;;;;;5039130;28;20509;-66
2022/10/21 05:55:10;;;;;;;37.05;17.70;;;;;;;;;;5050919;28;20042;-65
2022/10/21 05:57:37;;;;;;;33.00;18.50;;;;;;;;;;5038125;28;20033;-65
2022/10/21 06:00:07;;;;;;;31.75;16.42;;;;;;;;;;5044759;28;20044;-65
2022/10/21 06:02:33;;;;;;;33.92;19.00;;;;;;;;;;5039580;28;20041;-66
2022/10/21 06:04:59;;;;;;;28.58;16.88;;;;;;;;;;5046305;28;20497;-66
2022/10/21 06:07:25;;;;;;;27.65;15.63;;;;;;;;;;5034419;28;20056;-66
2022/10/21 06:09:51;;;;;;;29.55;16.63;;;;;;;;;;5038130;28;20038;-65
2022/10/21 06:12:17;;;;;;;35.88;17.20;;;;;;;;;;5041283;28;20519;-65
2022/10/21 06:14:43;;;;;;;36.83;18.02;;;;;;;;;;5046378;28;20052;-66
2022/10/21 06:17:09;;;;;;;30.08;17.35;;;;;;;;;;5045384;28;20041;-65
2022/10/21 06:19:35;;;;;;;29.80;17.73;;;;;;;;;;5042046;28;20087;-66
2022/10/21 06:22:01;;;;;;;29.02;17.23;;;;;;;;;;5021798;28;20045;-66
2022/10/21 06:24:28;;;;;;;30.13;17.63;;;;;;;;;;5038604;28;20399;-66
2022/10/21 06:26:54;;;;;;;35.00;18.20;;;;;;;;;;5048891;28;20037;-65
2022/10/21 06:29:20;;;;;;;28.10;16.33;;;;;;;;;;5051468;28;20079;-66
2022/10/21 06:31:46;;;;;;;33.05;16.48;;;;;;;;;;5045986;28;20060;-65
2022/10/21 06:34:12;;;;;;;26.00;15.82;;;;;;;;;;5046631;28;20083;-65
2022/10/21 06:36:38;;;;;;;38.92;16.85;;;;;;;;;;5052114;28;20032;-66
2022/10/21 06:39:05;;;;;;;40.60;17.83;;;;;;;;;;5047421;28;20087;-66
2022/10/21 06:41:31;;;;;;;32.08;16.05;;;;;;;;;;5052019;28;20064;-66
2022/10/21 06:43:57;;;;;;;29.13;15.82;;;;;;;;;;5048432;28;20083;-65
2022/10/21 06:46:23;;;;;;;35.53;15.65;;;;;;;;;;5050218;28;20045;-65
2022/10/21 06:48:49;;;;;;;24.55;14.82;;;;;;;;;;5045777;28;20041;-66
2022/10/21 06:51:17;;;;;;;26.95;15.27;;;;;;;;;;5047054;28;20044;-65
2022/10/21 06:53:43;;;;;;;22.63;14.82;;;;;;;;;;5049561;28;20047;-65
2022/10/21 06:56:11;;;;;;;24.33;15.20;;;;;;;;;;5048303;28;20482;-65
2022/10/21 06:58:38;;;;;;;17.92;12.52;;;;;;;;;;5044768;28;20043;-66
2022/10/21 07:01:11;;;;;;;25.83;12.43;;;;;;;;;;5050064;28;20094;-66
2022/10/21 07:03:37;;;;;;;25.48;13.90;;;;;;;;;;5042310;28;20098;-66
2022/10/21 07:06:03;;;;;;;26.35;15.73;;;;;;;;;;5048550;28;20450;-66
2022/10/21 07:08:30;;;;;;;30.10;17.10;;;;;;;;;;5038511;28;20506;-65
2022/10/21 07:10:56;;;;;;;29.80;15.55;;;;;;;;;;5042727;28;20036;-65
2022/10/21 07:13:22;;;;;;;30.75;17.17;;;;;;;;;;5043662;28;20045;-66
2022/10/21 07:15:56;;;;;;;31.05;17.10;;;;;;;;;;5042968;28;20041;-66
2022/10/21 07:18:22;;;;;;;32.63;17.55;;;;;;;;;;5042773;28;20128;-66
2022/10/21 07:20:48;;;;;;;27.80;17.20;;;;;;;;;;5039494;28;20474;-66
2022/10/21 07:23:14;;;;;;;27.98;16.88;;;;;;;;;;5041250;28;20037;-65
2022/10/21 07:25:41;;;;;;;30.90;17.17;;;;;;;;;;5051353;28;20383;-66
2022/10/21 07:28:07;;;;;;;27.38;16.35;;;;;;;;;;5045632;28;20103;-65
2022/10/21 07:30:38;;;;;;;28.65;16.98;;;;;;;;;;5048982;28;20037;-65
2022/10/21 07:33:04;;;;;;;26.58;16.30;;;;;;;;;;5047070;28;20041;-66
2022/10/21 07:35:30;;;;;;;29.45;16.70;;;;;;;;;;5041333;28;20041;-66
2022/10/21 07:37:56;;;;;;;28.75;16.73;;;;;;;;;;5049213;28;20501;-66
2022/10/21 07:40:22;;;;;;;31.98;16.65;;;;;;;;;;5050886;28;20112;-66
2022/10/21 07:42:48;;;;;;;31.00;17.85;;;;;;;;;;5027898;28;20632;-66
2022/10/21 07:45:14;;;;;;;33.70;17.55;;;;;;;;;;5046712;28;20052;-66
2022/10/21 07:47:40;;;;;;;33.28;18.30;;;;;;;;;;5043512;28;20081;-66
2022/10/21 07:50:06;;;;;;;33.72;18.25;;;;;;;;;;5030607;28;20044;-66
2022/10/21 07:52:32;;;;;;;34.20;18.35;;;;;;;;;;5045990;28;20382;-66
2022/10/21 07:54:58;;;;;;;37.03;19.17;;;;;;;;;;5038400;28;20624;-66
2022/10/21 07:57:24;;;;;;;41.03;19.55;;;;;;;;;;5043480;28;20041;-66
2022/10/21 07:59:50;;;;;;;38.72;19.45;;;;;;;;;;5042805;28;20171;-66
2022/10/21 08:02:16;;;;;;;39.45;19.25;;;;;;;;;;5039722;28;21603;-66
2022/10/21 08:04:42;;;;;;;38.92;19.55;;;;;;;;;;5038762;28;20067;-66
2022/10/21 08:07:08;;;;;;;39.70;20.10;;;;;;;;;;5049496;28;20543;-66
2022/10/21 08:09:34;;;;;;;38.17;19.52;;;;;;;;;;5048431;28;20128;-66
2022/10/21 08:12:00;;;;;;;35.72;18.33;;;;;;;;;;5044833;28;20045;-66
2022/10/21 08:14:26;;;;;;;36.83;20.10;;;;;;;;;;5034468;28;20045;-66
2022/10/21 08:16:53;;;;;;;36.40;18.80;;;;;;;;;;5043038;28;20059;-66
2022/10/21 08:19:28;;;;;;;31.13;17.88;;;;;;;;;;5040914;28;20380;-66
2022/10/21 08:21:54;;;;;;;31.73;18.25;;;;;;;;;;5039551;28;20441;-66
2022/10/21 08:24:20;;;;;;;32.40;17.48;;;;;;;;;;5050908;28;20041;-66
2022/10/21 08:26:46;;;;;;;31.67;18.02;;;;;;;;;;5048333;28;20086;-66
2022/10/21 08:29:12;;;;;;;28.85;17.33;;;;;;;;;;5053108;28;20124;-65
2022/10/21 08:31:38;;;;;;;29.65;16.75;;;;;;;;;;5053429;28;20179;-66
2022/10/21 08:34:04;;;;;;;32.00;16.90;;;;;;;;;;5050052;28;20475;-66
2022/10/21 08:36:30;;;;;;;29.50;17.08;;;;;;;;;;5048927;28;20063;-63
2022/10/21 08:38:57;;;;;;;27.73;16.17;;;;;;;;;;5053904;28;20036;-64
2022/10/21 08:41:29;;;;;;;27.02;16.83;;;;;;;;;;5052240;28;20045;-63
2022/10/21 08:44:00;;;;;;;30.00;17.02;;;;;;;;;;5047356;28;20049;-64
2022/10/21 08:46:32;;;;;;;30.13;15.77;;;;;;;;;;5048511;28;20080;-63
2022/10/21 08:49:02;;;;;;;27.52;15.43;;;;;;;;;;5048915;28;20033;-63
2022/10/21 08:51:28;;;;;;;29.00;16.65;;;;;;;;;;5051068;28;20041;-63
2022/10/21 08:53:57;;;;;;;28.95;15.65;;;;;;;;;;5047003;28;20029;-63
2022/10/21 08:56:23;;;;;;;29.20;16.80;;;;;;;;;;5047168;28;20041;-63
2022/10/21 08:58:51;;;;;;;36.88;17.67;;;;;;;;;;5043379;28;20421;-65
2022/10/21 09:01:31;;;;;;;31.05;16.27;;;;;;;;;;5053356;28;20045;-65
2022/10/21 09:04:05;;;;;;;27.13;15.98;;;;;;;;;;5048916;28;20187;-64
2022/10/21 09:06:50;;;;;;;30.58;15.38;;;;;;;;;;5054221;28;20040;-65
2022/10/21 09:09:16;;;;;;;26.73;15.35;;;;;;;;;;5046230;28;20383;-65
2022/10/21 09:11:42;;;;;;;26.17;15.45;;;;;;;;;;5048586;28;20044;-65
2022/10/21 09:14:27;;;;;;;30.30;15.30;;;;;;;;;;5049227;28;20047;-64
2022/10/21 09:16:55;;;;;;;24.63;15.18;;;;;;;;;;5052656;28;20033;-65
2022/10/21 09:19:37;;;;;;;29.75;15.27;;;;;;;;;;5042767;28;20069;-64
2022/10/21 09:22:06;;;;;;;28.15;16.52;;;;;;;;;;5034895;28;20041;-64
2022/10/21 09:24:43;;;;;;;26.77;15.57;;;;;;;;;;5039074;28;20071;-64
2022/10/21 09:27:10;;;;;;;30.77;14.75;;;;;;;;;;5053579;28;20103;-64
2022/10/21 09:29:37;;;;;;;25.25;15.27;;;;;;;;;;5050857;28;20033;-64
2022/10/21 09:32:09;;;;;;;25.63;15.18;;;;;;;;;;5046837;28;20045;-64
2022/10/21 09:34:42;;;;;;;25.20;14.15;;;;;;;;;;5042171;28;20037;-65
2022/10/21 09:37:14;;;;;;;23.42;13.63;;;;;;;;;;5053731;28;20048;-65
2022/10/21 09:39:42;;;;;;;23.67;13.23;;;;;;;;;;5049366;28;20037;-65
2022/10/21 09:42:11;;;;;;;21.63;13.20;;;;;;;;;;5044403;28;20509;-65
2022/10/21 09:44:37;;;;;;;22.70;12.70;;;;;;;;;;5049154;28;20537;-64
2022/10/21 09:47:15;;;;;;;22.60;13.00;;;;;;;;;;5044958;28;20507;-65
2022/10/21 09:49:45;;;;;;;20.73;11.77;;;;;;;;;;5040926;28;20040;-65
2022/10/21 09:52:11;;;;;;;15.68;10.50;;;;;;;;;;5054535;28;20448;-65
2022/10/21 09:54:39;;;;;;;19.35;10.88;;;;;;;;;;5042239;28;20530;-65
2022/10/21 09:57:11;;;;;;;17.45;11.00;;;;;;;;;;5050604;28;20044;-65
2022/10/21 09:59:49;;;;;;;21.10;11.10;;;;;;;;;;5040958;28;20487;-65
2022/10/21 10:02:17;;;;;;;17.70;10.45;;;;;;;;;;5045308;28;20048;-65
2022/10/21 10:04:43;;;;;;;20.88;10.65;;;;;;;;;;5049200;28;20033;-65
2022/10/21 10:07:27;;;;;;;19.13;10.80;;;;;;;;;;5048305;28;20403;-65
2022/10/21 10:09:53;;;;;;;17.52;10.02;;;;;;;;;;5045712;28;20073;-65
2022/10/21 10:12:23;;;;;;;17.73;10.55;;;;;;;;;;5053214;28;20032;-65
2022/10/21 10:14:49;;;;;;;16.90;9.85;;;;;;;;;;5045991;28;20069;-65
2022/10/21 10:17:20;;;;;;;15.15;10.13;;;;;;;;;;5049910;28;20036;-65
2022/10/21 10:20:01;;;;;;;19.30;10.15;;;;;;;;;;5050560;28;20040;-65
2022/10/21 10:22:27;;;;;;;18.05;10.30;;;;;;;;;;5044321;28;20127;-65
2022/10/21 10:24:53;;;;;;;17.17;11.20;;;;;;;;;;5042952;28;20125;-66
2022/10/21 10:27:22;;;;;;;18.90;10.68;;;;;;;;;;5049161;28;20617;-65
2022/10/21 10:29:52;;;;;;;20.48;10.60;;;;;;;;;;5046390;28;20033;-65
2022/10/21 10:32:18;;;;;;;22.42;10.85;;;;;;;;;;5044978;28;20044;-64
2022/10/21 10:34:50;;;;;;;20.00;10.30;;;;;;;;;;5037065;28;20080;-65
2022/10/21 10:37:35;;;;;;;22.27;10.98;;;;;;;;;;5037815;28;20076;-65
2022/10/21 10:40:03;;;;;;;21.33;10.75;;;;;;;;;;5051750;28;20178;-65
2022/10/21 10:42:32;;;;;;;22.58;10.90;;;;;;;;;;5047961;28;20044;-65
2022/10/21 10:45:10;;;;;;;18.52;11.07;;;;;;;;;;5040330;28;20120;-65
2022/10/21 10:47:40;;;;;;;22.05;11.68;;;;;;;;;;5040977;28;20033;-65
2022/10/21 10:50:26;;;;;;;19.13;11.60;;;;;;;;;;5048259;28;20407;-65
2022/10/21 10:53:13;;;;;;;19.27;13.05;;;;;;;;;;5036502;28;20049;-65
2022/10/21 10:55:42;;;;;;;19.67;11.13;;;;;;;;;;5050933;28;20029;-65
2022/10/21 10:58:09;;;;;;;20.45;10.63;;;;;;;;;;5046071;28;20131;-65
2022/10/21 11:00:39;;;;;;;16.23;10.55;;;;;;;;;;5043911;28;20058;-65
2022/10/21 11:03:09;;;;;;;19.33;11.00;;;;;;;;;;5050360;28;20398;-65
2022/10/21 11:05:46;;;;;;;21.48;10.52;;;;;;;;;;5043502;28;20406;-65
2022/10/21 11:08:32;;;;;;;18.75;10.63;;;;;;;;;;5042980;28;20124;-65
2022/10/21 11:11:06;;;;;;;17.05;10.00;;;;;;;;;;5039590;28;20558;-65
2022/10/21 11:13:33;;;;;;;17.92;10.27;;;;;;;;;;5046897;28;20404;-66
2022/10/21 11:16:10;;;;;;;17.17;9.88;;;;;;;;;;5045895;28;20037;-66
2022/10/21 11:18:40;;;;;;;17.02;9.52;;;;;;;;;;5037779;28;20033;-66
2022/10/21 11:21:06;;;;;;;15.25;9.93;;;;;;;;;;5047651;28;20142;-66
2022/10/21 11:23:50;;;;;;;22.45;10.50;;;;;;;;;;5037499;28;20052;-66
2022/10/21 11:26:22;;;;;;;15.38;9.57;;;;;;;;;;5045227;28;20120;-66
2022/10/21 11:28:54;;;;;;;22.75;9.55;;;;;;;;;;5048223;28;20052;-66
2022/10/21 11:31:23;;;;;;;18.90;9.68;;;;;;;;;;5041852;28;20059;-66
2022/10/21 11:34:04;;;;;;;16.58;9.45;;;;;;;;;;5043717;28;20054;-66
2022/10/21 11:36:33;;;;;;;17.00;9.32;;;;;;;;;;5046707;28;20041;-65
2022/10/21 11:39:02;;;;;;;17.70;9.60;;;;;;;;;;5046865;28;20028;-65
2022/10/21 11:41:46;;;;;;;17.90;9.50;;;;;;;;;;5049248;28;20052;-65
2022/10/21 11:44:31;;;;;;;14.80;9.30;;;;;;;;;;5047823;28;20106;-65
2022/10/21 11:47:03;;;;;;;14.40;9.65;;;;;;;;;;5051618;28;20037;-65
2022/10/21 11:49:29;;;;;;;14.88;9.10;;;;;;;;;;5050267;28;20041;-65
2022/10/21 11:51:55;;;;;;;19.40;9.07;;;;;;;;;;5047665;28;20465;-65
2022/10/21 11:54:40;;;;;;;19.58;9.80;;;;;;;;;;5050339;28;20100;-65
2022/10/21 11:57:21;;;;;;;16.90;9.30;;;;;;;;;;5038513;28;20038;-65
2022/10/21 11:59:47;;;;;;;;;;;;;;;;;;5044904;28;20037;-65
2022/10/21 12:02:17;;;;;;;17.92;9.57;;;;;;;;;;5046071;28;19936;-65
2022/10/21 12:04:55;;;;;;;16.45;8.82;;;;;;;;;;5043424;28;20030;-65
2022/10/21 12:07:41;;;;;;;15.95;9.57;;;;;;;;;;5036437;28;20187;-66
2022/10/21 12:10:19;;;;;;;19.70;9.27;;;;;;;;;;5040432;28;20052;-65
2022/10/21 12:12:46;;;;;;;13.85;8.98;;;;;;;;;;5048818;28;20045;-65
2022/10/21 12:15:15;;;;;;;16.23;8.65;;;;;;;;;;5047569;28;20348;-65
2022/10/21 12:17:41;;;;;;;15.68;9.48;;;;;;;;;;5050123;28;20119;-66
2022/10/21 12:20:14;;;;;;;14.77;8.68;;;;;;;;;;5051158;28;20044;-65
2022/10/21 12:22:40;;;;;;;18.45;9.52;;;;;;;;;;5049784;28;20447;-65
2022/10/21 12:25:13;;;;;;;16.77;8.80;;;;;;;;;;5040175;28;20076;-65
2022/10/21 12:28:03;;;;;;;18.75;9.10;;;;;;;;;;5050064;28;20044;-65
2022/10/21 12:30:49;;;;;;;17.33;9.17;;;;;;;;;;5048302;28;20095;-65
2022/10/21 12:33:15;;;;;;;17.88;8.65;;;;;;;;;;5050911;28;20123;-65
2022/10/21 12:35:49;;;;;;;18.48;9.10;;;;;;;;;;5035715;28;20064;-66
2022/10/21 12:38:23;;;;;;;17.88;8.18;;;;;;;;;;5049753;28;20044;-66
2022/10/21 12:40:49;;;;;;;17.20;9.15;;;;;;;;;;5044820;28;20029;-65
2022/10/21 12:43:22;;;;;;;18.20;8.60;;;;;;;;;;5044497;28;20041;-65
2022/10/21 12:46:01;;;;;;;13.93;8.35;;;;;;;;;;5045848;28;20052;-65
2022/10/21 12:48:43;;;;;;;14.27;8.13;;;;;;;;;;5038687;28;20116;-66
2022/10/21 12:51:27;;;;;;;15.27;8.70;;;;;;;;;;5048296;28;20045;-65
2022/10/21 12:53:56;;;;;;;15.73;8.85;;;;;;;;;;5039697;28;20518;-65
2022/10/21 12:56:27;;;;;;;12.57;8.18;;;;;;;;;;5040411;28;20040;-65
2022/10/21 12:58:58;;;;;;;15.75;8.65;;;;;;;;;;5035696;28;20394;-65
2022/10/21 13:01:44;;;;;;;18.63;8.70;;;;;;;;;;5043725;28;20055;-66
2022/10/21 13:04:28;;;;;;;16.55;8.55;;;;;;;;;;5045363;28;20096;-65
2022/10/21 13:06:55;;;;;;;15.48;8.48;;;;;;;;;;5045178;28;20564;-65
2022/10/21 13:09:32;;;;;;;10.52;7.30;;;;;;;;;;5052760;28;20520;-65
2022/10/21 13:12:10;;;;;;;10.52;6.85;;;;;;;;;;5051248;28;20398;-65
2022/10/21 13:14:55;;;;;;;11.38;7.15;;;;;;;;;;5050579;28;20033;-66
2022/10/21 13:17:21;;;;;;;12.25;7.32;;;;;;;;;;5044119;28;20037;-65
2022/10/21 13:19:47;;;;;;;12.25;7.18;;;;;;;;;;5054404;28;20060;-65
2022/10/21 13:22:15;;;;;;;16.27;7.72;;;;;;;;;;5054072;28;20037;-65
2022/10/21 13:24:41;;;;;;;11.63;7.00;;;;;;;;;;5051259;28;20136;-65
2022/10/21 13:27:25;;;;;;;12.38;6.93;;;;;;;;;;5048594;28;20053;-65
2022/10/21 13:29:52;;;;;;;10.48;6.70;;;;;;;;;;5048470;28;20033;-65
2022/10/21 13:32:26;;;;;;;14.55;7.05;;;;;;;;;;5041018;28;20076;-65
2022/10/21 13:35:21;;;;;;;11.32;6.95;;;;;;;;;;5054159;28;20033;-65
2022/10/21 13:38:00;;;;;;;11.48;6.95;;;;;;;;;;5054039;28;20072;-65
2022/10/21 13:40:36;;;;;;;9.93;6.72;;;;;;;;;;5052028;28;20367;-65
2022/10/21 13:43:05;;;;;;;13.30;6.65;;;;;;;;;;5050771;28;20041;-65
2022/10/21 13:45:34;;;;;;;14.70;6.60;;;;;;;;;;5047253;28;20080;-65
2022/10/21 13:48:07;;;;;;;11.07;6.95;;;;;;;;;;5041935;28;20044;-66
2022/10/21 13:50:37;;;;;;;11.90;6.28;;;;;;;;;;5053688;28;20136;-65
2022/10/21 13:53:05;;;;;;;9.87;6.50;;;;;;;;;;5047592;28;20053;-65
2022/10/21 13:55:31;;;;;;;13.25;6.35;;;;;;;;;;5053370;28;20268;-65
2022/10/21 13:57:57;;;;;;;9.13;6.22;;;;;;;;;;5052460;28;20059;-65
2022/10/21 14:00:28;;;;;;;8.80;6.10;;;;;;;;;;5048791;28;20142;-65
2022/10/21 14:02:54;;;;;;;;;;;;;;;;;;5045950;28;20033;-65
2022/10/21 14:05:28;;;;;;;10.40;5.70;;;;;;;;;;5052364;28;19917;-65
2022/10/21 14:07:54;;;;;;;11.38;5.45;;;;;;;;;;5053433;28;20045;-65
2022/10/21 14:10:21;;;;;;;8.10;4.95;;;;;;;;;;5046491;28;20076;-65
2022/10/21 14:12:48;;;;;;;7.75;4.70;;;;;;;;;;5048679;28;20047;-66
2022/10/21 14:15:20;;;;;;;9.75;5.00;;;;;;;;;;5051771;28;20553;-66
2022/10/21 14:17:53;;;;;;;9.50;4.40;;;;;;;;;;5053239;28;20044;-66
2022/10/21 14:20:24;;;;;;;8.57;4.22;;;;;;;;;;5052029;28;20048;-66
2022/10/21 14:22:51;;;;;;;7.82;4.57;;;;;;;;;;5047424;28;20043;-66
2022/10/21 14:25:17;;;;;;;7.90;3.97;;;;;;;;;;5047136;28;20076;-66
2022/10/21 14:27:46;;;;;;;9.20;4.88;;;;;;;;;;5048220;28;20037;-66
2022/10/21 14:30:16;;;;;;;7.25;4.90;;;;;;;;;;5049486;28;20055;-66
2022/10/21 14:32:43;;;;;;;9.20;5.10;;;;;;;;;;5052417;28;20041;-66